createdAt,value
2019-04-26T00:00:52.125Z,27.20
2019-04-26T00:03:26.254Z,26.80
2019-04-26T00:05:55.431Z,27.50
2019-04-26T00:08:24.208Z,19.45
2019-04-26T00:10:54.910Z,26.10
2019-04-26T00:13:28.447Z,23.80
2019-04-26T00:16:14.996Z,18.67
2019-04-26T00:18:44.600Z,27.52
2019-04-26T00:21:14.049Z,27.22
2019-04-26T00:23:42.865Z,25.23
2019-04-26T00:26:12.307Z,19.07
2019-04-26T00:31:11.526Z,31.62
2019-04-26T00:33:40.873Z,26.82
2019-04-26T00:36:12.346Z,25.65
2019-04-26T00:38:42.132Z,16.73
2019-04-26T00:41:10.740Z,25.95
2019-04-26T00:43:39.515Z,26.82
2019-04-26T00:46:07.942Z,25.95
2019-04-26T00:48:36.784Z,27.65
2019-04-26T00:51:06.061Z,27.07
2019-04-26T00:53:35.423Z,28.85
2019-04-26T00:56:04.981Z,26.85
2019-04-26T00:58:33.747Z,27.22
2019-04-26T01:01:03.557Z,20.55
2019-04-26T01:03:32.748Z,24.50
2019-04-26T01:06:03.268Z,32.73
2019-04-26T01:08:31.662Z,22.75
2019-04-26T01:11:03.680Z,22.30
2019-04-26T01:13:31.722Z,20.75
2019-04-26T01:16:03.788Z,19.35
2019-04-26T01:18:49.452Z,16.82
2019-04-26T01:21:18.635Z,26.80
2019-04-26T01:23:47.255Z,19.32
2019-04-26T01:26:21.539Z,17.60
2019-04-26T01:28:58.688Z,22.27
2019-04-26T01:31:28.173Z,22.50
2019-04-26T01:33:57.127Z,15.88
2019-04-26T01:36:26.460Z,25.68
2019-04-26T01:38:58.590Z,27.25
2019-04-26T01:41:30.607Z,34.90
2019-04-26T01:44:01.582Z,27.80
2019-04-26T01:46:39.017Z,20.43
2019-04-26T01:49:09.332Z,24.30
2019-04-26T01:52:00.015Z,26.25
2019-04-26T01:54:31.997Z,32.33
2019-04-26T01:57:04.126Z,20.52
2019-04-26T01:59:32.659Z,20.52
2019-04-26T02:02:08.972Z,22.02
2019-04-26T02:04:38.887Z,20.82
2019-04-26T02:07:07.997Z,18.55
2019-04-26T02:09:37.310Z,17.57
2019-04-26T02:12:06.661Z,21.37
2019-04-26T02:14:35.184Z,18.50
2019-04-26T02:17:03.652Z,16.30
2019-04-26T02:19:32.223Z,22.05
2019-04-26T02:22:02.661Z,22.32
2019-04-26T02:24:33.007Z,22.98
2019-04-26T02:27:02.960Z,20.50
2019-04-26T02:29:31.417Z,16.20
2019-04-26T02:32:02.221Z,19.75
2019-04-26T02:34:33.199Z,31.57
2019-04-26T02:37:02.543Z,19.48
2019-04-26T02:39:35.409Z,18.12
2019-04-26T02:42:05.630Z,23.65
2019-04-26T02:44:39.764Z,22.52
2019-04-26T02:47:33.191Z,18.32
2019-04-26T02:50:09.951Z,13.75
2019-04-26T02:52:57.922Z,18.27
2019-04-26T02:56:04.851Z,12.80
2019-04-26T02:58:45.307Z,25.17
2019-04-26T03:01:14.005Z,16.67
2019-04-26T03:03:45.195Z,22.02
2019-04-26T03:06:13.633Z,20.57
2019-04-26T03:08:42.758Z,17.60
2019-04-26T03:11:17.306Z,14.67
2019-04-26T03:13:53.862Z,23.57
2019-04-26T03:16:46.111Z,16.73
2019-04-26T03:19:53.100Z,17.25
2019-04-26T03:22:54.288Z,15.23
2019-04-26T03:25:40.127Z,19.95
2019-04-26T03:28:13.331Z,17.42
2019-04-26T03:30:52.620Z,14.63
2019-04-26T03:33:42.112Z,15.03
2019-04-26T03:36:37.726Z,13.10
2019-04-26T03:39:09.898Z,15.58
2019-04-26T03:42:09.078Z,15.20
2019-04-26T03:44:44.176Z,24.20
2019-04-26T03:47:15.935Z,17.65
2019-04-26T03:50:04.813Z,29.48
2019-04-26T03:52:37.938Z,24.35
2019-04-26T03:55:26.110Z,13.65
2019-04-26T03:58:05.355Z,17.87
2019-04-26T04:00:43.379Z,11.37
2019-04-26T04:03:29.657Z,20.68
2019-04-26T04:06:05.936Z,19.27
2019-04-26T04:08:59.808Z,26.77
2019-04-26T04:11:43.128Z,17.27
2019-04-26T04:14:18.528Z,19.40
2019-04-26T04:16:59.087Z,14.75
2019-04-26T04:19:32.950Z,19.27
2019-04-26T04:22:13.985Z,19.37
2019-04-26T04:25:04.142Z,22.32
2019-04-26T04:27:47.271Z,15.30
2019-04-26T04:30:34.756Z,23.90
2019-04-26T04:33:18.749Z,14.98
2019-04-26T04:35:50.031Z,17.30
2019-04-26T04:38:29.357Z,13.58
2019-04-26T04:41:32.209Z,16.65
2019-04-26T04:44:20.320Z,15.58
2019-04-26T04:47:23.713Z,17.48
2019-04-26T04:50:06.259Z,12.33
2019-04-26T04:52:41.367Z,14.50
2019-04-26T04:55:32.329Z,16.35
2019-04-26T04:58:18.571Z,20.23
2019-04-26T05:01:10.861Z,12.47
2019-04-26T05:03:45.088Z,20.10
2019-04-26T05:06:51.198Z,16.48
2019-04-26T05:09:28.722Z,15.03
2019-04-26T05:12:00.567Z,13.93
2019-04-26T05:14:46.128Z,18.40
2019-04-26T05:17:53.668Z,24.15
2019-04-26T05:20:27.620Z,16.37
2019-04-26T05:23:34.457Z,15.30
2019-04-26T05:26:30.276Z,16.70
2019-04-26T05:29:29.655Z,20.23
2019-04-26T05:32:30.486Z,15.30
2019-04-26T05:35:22.605Z,11.93
2019-04-26T05:37:55.192Z,16.42
2019-04-26T05:40:55.833Z,18.37
2019-04-26T05:43:40.598Z,15.53
2019-04-26T05:46:50.223Z,13.90
2019-04-26T05:50:00.530Z,16.87
2019-04-26T05:52:53.570Z,9.03
2019-04-26T05:55:44.974Z,13.43
2019-04-26T05:58:39.277Z,12.80
2019-04-26T06:01:18.301Z,13.05
2019-04-26T06:04:36.966Z,21.73
2019-04-26T06:07:30.474Z,17.55
2019-04-26T06:10:22.724Z,16.77
2019-04-26T06:13:11.073Z,9.60
2019-04-26T06:15:47.416Z,13.00
2019-04-26T06:18:27.325Z,12.78
2019-04-26T06:20:59.776Z,17.48
2019-04-26T06:23:39.069Z,17.27
2019-04-26T06:26:30.929Z,18.12
2019-04-26T06:29:32.763Z,13.38
2019-04-26T06:32:11.011Z,19.42
2019-04-26T06:35:10.216Z,14.23
2019-04-26T06:37:47.254Z,13.78
2019-04-26T06:40:28.222Z,16.32
2019-04-26T06:43:02.781Z,18.57
2019-04-26T06:45:47.824Z,12.50
2019-04-26T06:48:35.650Z,11.97
2019-04-26T06:51:24.780Z,22.77
2019-04-26T06:54:20.172Z,18.82
2019-04-26T06:56:55.865Z,18.70
2019-04-26T06:59:43.161Z,14.18
2019-04-26T07:02:18.096Z,19.65
2019-04-26T07:05:11.830Z,17.87
2019-04-26T07:08:06.871Z,16.82
2019-04-26T07:11:00.670Z,20.20
2019-04-26T07:13:50.699Z,13.00
2019-04-26T07:16:40.653Z,15.88
2019-04-26T07:19:23.360Z,12.33
2019-04-26T07:22:34.819Z,10.08
2019-04-26T07:25:21.914Z,14.33
2019-04-26T07:28:14.558Z,14.10
2019-04-26T07:31:11.393Z,11.88
2019-04-26T07:34:09.476Z,12.30
2019-04-26T07:37:11.424Z,15.10
2019-04-26T07:40:04.901Z,12.63
2019-04-26T07:42:48.049Z,13.22
2019-04-26T07:45:45.771Z,14.35
2019-04-26T07:48:46.028Z,16.35
2019-04-26T07:52:02.751Z,12.07
2019-04-26T07:54:35.082Z,13.53
2019-04-26T07:57:24.963Z,13.93
2019-04-26T08:00:27.368Z,11.50
2019-04-26T08:03:19.608Z,11.18
2019-04-26T08:05:58.295Z,14.07
2019-04-26T08:08:30.944Z,15.18
2019-04-26T08:11:23.398Z,8.95
2019-04-26T08:13:56.727Z,12.78
2019-04-26T08:16:30.720Z,10.43
2019-04-26T08:19:12.600Z,10.65
2019-04-26T08:21:48.165Z,11.15
2019-04-26T08:24:28.283Z,7.70
2019-04-26T08:27:18.831Z,9.15
2019-04-26T08:29:48.306Z,10.30
2019-04-26T08:32:28.320Z,8.30
2019-04-26T08:35:08.168Z,13.90
2019-04-26T08:37:39.286Z,16.82
2019-04-26T08:40:16.291Z,11.43
2019-04-26T08:42:46.012Z,11.90
2019-04-26T08:45:27.789Z,16.05
2019-04-26T08:48:27.158Z,15.00
2019-04-26T08:50:57.127Z,9.05
2019-04-26T08:53:34.118Z,16.30
2019-04-26T08:56:03.479Z,9.53
2019-04-26T09:01:23.487Z,9.23
2019-04-26T09:03:55.863Z,13.62
2019-04-26T09:06:29.059Z,7.90
2019-04-26T09:09:06.923Z,11.90
2019-04-26T09:11:36.717Z,13.95
2019-04-26T09:14:12.036Z,15.18
2019-04-26T09:16:50.227Z,9.60
2019-04-26T09:19:21.219Z,10.90
2019-04-26T09:21:54.802Z,14.35
2019-04-26T09:24:41.990Z,14.43
2019-04-26T09:27:20.804Z,13.70
2019-04-26T09:30:08.333Z,14.15
2019-04-26T09:32:46.847Z,9.63
2019-04-26T09:35:16.901Z,19.12
2019-04-26T09:37:49.630Z,10.32
2019-04-26T09:40:22.854Z,13.13
2019-04-26T09:43:15.057Z,12.98
2019-04-26T09:46:02.700Z,16.80
2019-04-26T09:48:43.594Z,16.87
2019-04-26T09:51:21.181Z,14.60
2019-04-26T09:53:54.262Z,18.63
2019-04-26T09:56:29.189Z,17.45
2019-04-26T09:59:05.650Z,14.53
2019-04-26T10:01:36.713Z,15.38
2019-04-26T10:04:14.318Z,19.57
2019-04-26T10:06:46.540Z,15.70
2019-04-26T10:09:22.760Z,14.15
2019-04-26T10:11:55.679Z,25.97
2019-04-26T10:14:48.506Z,17.90
2019-04-26T10:17:35.619Z,23.73
2019-04-26T10:20:09.429Z,14.35
2019-04-26T10:22:54.275Z,23.30
2019-04-26T10:25:36.124Z,19.23
2019-04-26T10:28:11.881Z,16.10
2019-04-26T10:30:45.594Z,20.25
2019-04-26T10:33:23.272Z,14.38
2019-04-26T10:35:57.863Z,19.15
2019-04-26T10:38:35.982Z,26.73
2019-04-26T10:41:06.753Z,18.12
2019-04-26T10:43:41.786Z,17.52
2019-04-26T10:46:12.241Z,20.82
2019-04-26T10:48:45.534Z,18.50
2019-04-26T10:51:18.252Z,20.05
2019-04-26T10:53:53.132Z,17.65
2019-04-26T10:56:33.609Z,22.48
2019-04-26T10:59:22.708Z,19.98
2019-04-26T11:01:51.929Z,27.02
2019-04-26T11:04:30.720Z,18.95
2019-04-26T11:07:02.094Z,19.70
2019-04-26T11:09:33.501Z,16.52
2019-04-26T11:12:10.138Z,23.85
2019-04-26T11:14:43.043Z,22.02
2019-04-26T11:17:17.783Z,16.73
2019-04-26T11:19:48.567Z,19.25
2019-04-26T11:22:28.979Z,28.87
2019-04-26T11:24:53.740Z,22.00
2019-04-26T11:27:28.653Z,24.27
2019-04-26T11:30:11.639Z,30.20
2019-04-26T11:32:36.793Z,26.20
2019-04-26T11:35:06.163Z,31.02
2019-04-26T11:37:35.977Z,49.38
2019-04-26T11:40:10.259Z,25.45
2019-04-26T11:42:45.693Z,40.12
2019-04-26T11:45:16.116Z,43.33
2019-04-26T11:47:55.973Z,31.40
2019-04-26T11:50:24.693Z,35.00
2019-04-26T11:53:06.155Z,28.20
2019-04-26T11:55:38.149Z,31.25
2019-04-26T11:58:13.830Z,28.20
2019-04-26T12:00:54.622Z,23.15
2019-04-26T12:03:27.503Z,25.10
2019-04-26T12:05:57.654Z,44.98
2019-04-26T12:08:43.699Z,28.73
2019-04-26T12:11:18.595Z,30.60
2019-04-26T12:13:48.374Z,30.95
2019-04-26T12:16:21.432Z,32.03
2019-04-26T12:18:58.920Z,26.90
2019-04-26T12:21:41.282Z,30.48
2019-04-26T12:24:09.194Z,23.57
2019-04-26T12:26:43.699Z,27.07
2019-04-26T12:29:16.181Z,25.82
2019-04-26T12:31:52.097Z,34.70
2019-04-26T12:34:26.736Z,31.45
2019-04-26T12:37:00.484Z,31.33
2019-04-26T12:39:40.355Z,30.75
2019-04-26T12:42:12.382Z,35.75
2019-04-26T12:44:49.405Z,23.42
2019-04-26T12:47:26.032Z,25.05
2019-04-26T12:49:58.875Z,26.37
2019-04-26T12:52:30.014Z,31.37
2019-04-26T12:54:59.611Z,21.52
2019-04-26T12:57:30.236Z,27.87
2019-04-26T13:00:01.762Z,28.15
2019-04-26T13:02:37.892Z,30.77
2019-04-26T13:05:09.766Z,32.70
2019-04-26T13:07:42.968Z,29.45
2019-04-26T13:10:35.458Z,30.72
2019-04-26T13:13:21.635Z,38.78
2019-04-26T13:16:10.385Z,39.10
2019-04-26T13:18:45.425Z,35.92
2019-04-26T13:21:19.558Z,35.38
2019-04-26T13:23:56.482Z,24.82
2019-04-26T13:26:30.299Z,44.10
2019-04-26T13:29:00.475Z,35.95
2019-04-26T13:31:35.380Z,29.45
2019-04-26T13:34:04.731Z,37.05
2019-04-26T13:36:33.500Z,34.60
2019-04-26T13:39:02.636Z,31.25
2019-04-26T13:41:35.017Z,39.65
2019-04-26T13:44:05.967Z,39.63
2019-04-26T13:46:43.940Z,42.67
2019-04-26T13:49:29.420Z,31.07
2019-04-26T13:52:00.660Z,30.92
2019-04-26T13:54:30.758Z,40.20
2019-04-26T13:57:00.211Z,31.40
2019-04-26T13:59:39.759Z,28.40
2019-04-26T14:02:11.895Z,42.83
2019-04-26T14:04:41.114Z,35.23
2019-04-26T14:07:11.977Z,41.15
2019-04-26T14:09:40.758Z,36.95
2019-04-26T14:12:18.136Z,37.20
2019-04-26T14:14:40.214Z,43.70
2019-04-26T14:17:18.681Z,46.37
2019-04-26T14:19:52.349Z,44.35
2019-04-26T14:22:22.923Z,40.00
2019-04-26T14:24:57.077Z,40.43
2019-04-26T14:27:32.841Z,40.15
2019-04-26T14:30:02.620Z,53.13
2019-04-26T14:32:32.321Z,48.33
2019-04-26T14:35:01.468Z,42.40
2019-04-26T14:37:32.125Z,39.53
2019-04-26T14:40:16.590Z,42.93
2019-04-26T14:42:38.254Z,36.20
2019-04-26T14:45:08.822Z,31.17
2019-04-26T14:47:47.172Z,30.45
2019-04-26T14:50:14.240Z,50.90
2019-04-26T14:52:38.120Z,35.45
2019-04-26T14:55:07.664Z,46.30
2019-04-26T14:57:36.623Z,36.58
2019-04-26T15:00:08.642Z,39.80
2019-04-26T15:02:48.625Z,31.85
2019-04-26T15:05:22.820Z,39.38
2019-04-26T15:07:53.750Z,35.90
2019-04-26T15:10:23.694Z,42.80
2019-04-26T15:13:01.412Z,40.05
2019-04-26T15:15:27.082Z,32.75
2019-04-26T15:17:59.484Z,39.18
2019-04-26T15:20:27.730Z,41.83
2019-04-26T15:22:59.617Z,41.08
2019-04-26T15:25:28.752Z,29.45
2019-04-26T15:28:02.453Z,41.65
2019-04-26T15:30:34.231Z,27.37
2019-04-26T15:33:04.883Z,39.98
2019-04-26T15:35:37.749Z,37.80
2019-04-26T15:38:10.575Z,31.95
2019-04-26T15:40:45.863Z,41.00
2019-04-26T15:43:25.021Z,37.48
2019-04-26T15:46:13.339Z,31.73
2019-04-26T15:48:50.341Z,39.27
2019-04-26T15:51:27.455Z,41.85
2019-04-26T15:53:58.447Z,38.98
2019-04-26T15:56:41.139Z,37.30
2019-04-26T15:59:12.790Z,37.53
2019-04-26T16:01:47.592Z,33.83
2019-04-26T16:04:17.351Z,41.35
2019-04-26T16:06:45.870Z,50.88
2019-04-26T16:09:21.308Z,35.58
2019-04-26T16:11:54.817Z,42.58
2019-04-26T16:14:26.381Z,39.88
2019-04-26T16:16:53.372Z,37.23
2019-04-26T16:19:31.279Z,44.73
2019-04-26T16:22:09.384Z,46.25
2019-04-26T16:24:42.856Z,39.35
2019-04-26T16:27:14.680Z,43.13
2019-04-26T16:29:46.818Z,39.78
2019-04-26T16:32:32.541Z,49.83
2019-04-26T16:35:04.331Z,37.38
2019-04-26T16:37:40.309Z,44.27
2019-04-26T16:40:12.366Z,45.78
2019-04-26T16:42:41.356Z,36.33
2019-04-26T16:45:12.337Z,42.33
2019-04-26T16:47:47.540Z,38.30
2019-04-26T16:50:31.450Z,35.50
2019-04-26T16:52:55.735Z,40.52
2019-04-26T16:55:25.940Z,41.68
2019-04-26T16:57:58.042Z,40.33
2019-04-26T17:00:47.117Z,38.98
2019-04-26T17:03:02.746Z,29.52
2019-04-26T17:05:45.515Z,40.00
2019-04-26T17:08:05.015Z,45.52
2019-04-26T17:10:38.046Z,43.10
2019-04-26T17:13:07.503Z,33.15
2019-04-26T17:15:35.811Z,37.42
2019-04-26T17:18:04.850Z,35.75
2019-04-26T17:20:34.027Z,48.87
2019-04-26T17:23:13.968Z,38.53
2019-04-26T17:28:33.451Z,46.15
2019-04-26T17:31:02.159Z,39.75
2019-04-26T17:33:32.664Z,40.78
2019-04-26T17:36:02.998Z,31.40
2019-04-26T17:38:39.111Z,43.55
2019-04-26T17:41:27.084Z,43.87
2019-04-26T17:44:05.922Z,39.67
2019-04-26T17:46:32.581Z,37.42
2019-04-26T17:49:11.143Z,44.53
2019-04-26T17:51:46.608Z,37.90
2019-04-26T17:54:41.112Z,37.75
2019-04-26T17:56:49.181Z,37.83
2019-04-26T17:59:31.348Z,40.95
2019-04-26T18:02:00.545Z,43.15
2019-04-26T18:04:32.252Z,33.45
2019-04-26T18:07:05.103Z,45.00
2019-04-26T18:09:42.934Z,45.60
2019-04-26T18:48:35.210Z,39.78
2019-04-26T18:51:03.404Z,45.88
2019-04-26T18:53:39.624Z,34.83
2019-04-26T18:56:08.439Z,31.45
2019-04-26T18:58:41.075Z,42.78
2019-04-26T19:01:13.442Z,37.63
2019-04-26T19:03:41.627Z,32.60
2019-04-26T19:06:09.975Z,45.65
2019-04-26T19:08:47.551Z,30.82
2019-04-26T19:11:11.655Z,37.78
2019-04-26T19:13:53.113Z,30.57
2019-04-26T19:16:36.814Z,37.95
2019-04-26T19:19:26.060Z,35.73
2019-04-26T19:22:15.395Z,39.87
2019-04-26T19:24:42.316Z,43.68
2019-04-26T19:27:13.081Z,39.58
2019-04-26T19:29:43.342Z,35.73
2019-04-26T19:32:11.992Z,41.02
2019-04-26T19:34:42.088Z,35.05
2019-04-26T19:39:42.722Z,38.88
2019-04-26T19:42:11.886Z,48.78
2019-04-26T19:44:42.011Z,29.95
2019-04-26T19:47:17.772Z,47.33
2019-04-26T19:50:03.253Z,30.40
2019-04-26T19:52:33.647Z,37.33
2019-04-26T19:55:17.177Z,32.75
2019-04-26T19:57:59.345Z,35.80
2019-04-26T20:00:28.397Z,32.33
2019-04-26T20:02:57.163Z,33.73
2019-04-26T20:05:26.279Z,32.33
2019-04-26T20:07:58.542Z,32.47
2019-04-26T20:10:25.359Z,37.63
2019-04-26T20:12:54.791Z,37.95
2019-04-26T20:15:26.756Z,31.75
2019-04-26T20:17:59.493Z,34.03
2019-04-26T20:20:27.880Z,38.02
2019-04-26T20:22:59.301Z,35.43
2019-04-26T20:25:30.037Z,43.92
2019-04-26T20:28:01.495Z,44.83
2019-04-26T20:30:35.925Z,45.90
2019-04-26T20:33:05.017Z,41.23
2019-04-26T20:35:34.029Z,32.80
2019-04-26T20:38:04.865Z,41.65
2019-04-26T20:40:36.594Z,41.37
2019-04-26T20:43:06.874Z,43.80
2019-04-26T20:45:41.315Z,40.60
2019-04-26T20:48:09.266Z,40.70
2019-04-26T20:50:39.425Z,35.15
2019-04-26T20:53:12.027Z,37.48
2019-04-26T20:55:47.098Z,45.35
2019-04-26T20:58:16.196Z,44.73
2019-04-26T21:00:54.073Z,47.60
2019-04-26T21:03:25.991Z,55.48
2019-04-26T21:05:58.729Z,50.55
2019-04-26T21:08:25.699Z,47.17
2019-04-26T21:10:56.073Z,45.10
2019-04-26T21:13:30.402Z,54.95
2019-04-26T21:15:58.261Z,47.95
2019-04-26T21:18:25.422Z,56.35
2019-04-26T21:20:54.491Z,43.78
2019-04-26T21:23:23.356Z,53.95
2019-04-26T21:26:16.442Z,50.10
2019-04-26T21:28:44.944Z,46.98
2019-04-26T21:31:15.077Z,49.15
2019-04-26T21:36:20.123Z,50.67
2019-04-26T21:38:50.426Z,52.60
2019-04-26T21:41:27.278Z,46.85
2019-04-26T21:43:55.640Z,50.03
2019-04-26T21:46:24.255Z,48.38
2019-04-26T21:48:53.438Z,38.70
2019-04-26T21:51:23.402Z,54.77
2019-04-26T21:56:23.313Z,43.38
2019-04-26T21:58:53.298Z,50.17
2019-04-26T22:01:24.824Z,43.15
2019-04-26T22:03:57.047Z,44.48
2019-04-26T22:06:26.116Z,45.50
2019-04-26T22:11:27.846Z,42.03
2019-04-26T22:14:20.261Z,45.03
2019-04-26T22:16:46.326Z,47.53
2019-04-26T22:19:23.749Z,51.70
2019-04-26T22:22:05.827Z,42.03
2019-04-26T22:24:53.082Z,40.35
2019-04-26T22:27:25.236Z,33.23
2019-04-26T22:29:54.537Z,43.05
2019-04-26T22:32:22.968Z,24.77
2019-04-26T22:34:53.726Z,28.23
2019-04-26T22:37:29.890Z,31.05
2019-04-26T22:39:54.779Z,28.45
2019-04-26T22:42:24.057Z,29.23
2019-04-26T22:44:58.013Z,18.98
2019-04-26T22:47:29.087Z,16.00
2019-04-26T22:49:57.835Z,18.52
2019-04-26T22:52:28.214Z,24.27
2019-04-26T22:54:57.104Z,15.20
2019-04-26T22:57:31.029Z,18.17
2019-04-26T23:00:01.009Z,20.77
2019-04-26T23:05:02.132Z,17.55
2019-04-26T23:07:33.230Z,19.00
2019-04-26T23:10:04.227Z,19.17
2019-04-26T23:12:44.123Z,13.20
2019-04-26T23:15:17.120Z,10.85
2019-04-26T23:18:03.669Z,13.68
2019-04-26T23:20:38.403Z,17.12
2019-04-26T23:23:08.673Z,11.40
2019-04-26T23:25:38.122Z,15.63
2019-04-26T23:28:07.403Z,13.65
2019-04-26T23:30:35.728Z,11.68
2019-04-26T23:33:05.738Z,12.88
2019-04-26T23:38:08.304Z,16.15
2019-04-26T23:40:40.852Z,14.15
2019-04-26T23:43:08.466Z,17.32
2019-04-26T23:45:37.587Z,17.40
2019-04-26T23:48:07.872Z,10.93
2019-04-26T23:50:36.652Z,11.57
2019-04-26T23:53:05.804Z,11.57
2019-04-26T23:55:38.053Z,23.85
2019-04-26T23:58:10.761Z,14.65
